sensor_id;sensor_type;location;lat;lon;timestamp;pressure;altitude;pressure_sealevel;temperature;humidity
37710;BME280;60223;34.854;-92.408;2023-04-01T00:01:34;99631.50;;;24.43;33.30
37710;BME280;60223;34.854;-92.408;2023-04-01T00:03:59;99636.89;;;24.29;33.50
37710;BME280;60223;34.854;-92.408;2023-04-01T00:06:27;99637.80;;;23.98;33.29
37710;BME280;60223;34.854;-92.408;2023-04-01T00:08:52;99644.03;;;24.04;33.23
37710;BME280;60223;34.854;-92.408;2023-04-01T00:11:19;99659.09;;;24.33;33.29
37710;BME280;60223;34.854;-92.408;2023-04-01T00:13:44;99662.00;;;24.29;33.45
37710;BME280;60223;34.854;-92.408;2023-04-01T00:16:09;99672.03;;;23.83;33.31
37710;BME280;60223;34.854;-92.408;2023-04-01T00:18:34;99677.76;;;24.40;33.12
37710;BME280;60223;34.854;-92.408;2023-04-01T00:21:00;99680.30;;;24.04;33.31
37710;BME280;60223;34.854;-92.408;2023-04-01T00:33:22;99721.88;;;24.17;33.53
37710;BME280;60223;34.854;-92.408;2023-04-01T00:35:33;99726.11;;;23.98;33.56
37710;BME280;60223;34.854;-92.408;2023-04-01T00:37:58;99725.82;;;24.37;33.39
37710;BME280;60223;34.854;-92.408;2023-04-01T00:40:30;99731.29;;;24.34;33.47
37710;BME280;60223;34.854;-92.408;2023-04-01T00:42:47;99732.10;;;24.13;33.59
37710;BME280;60223;34.854;-92.408;2023-04-01T00:45:26;99735.25;;;23.87;33.64
37710;BME280;60223;34.854;-92.408;2023-04-01T00:47:40;99740.28;;;23.84;33.73
37710;BME280;60223;34.854;-92.408;2023-04-01T00:50:06;99746.85;;;23.88;33.69
37710;BME280;60223;34.854;-92.408;2023-04-01T00:52:30;99753.84;;;23.87;33.68
37710;BME280;60223;34.854;-92.408;2023-04-01T00:54:57;99762.62;;;23.92;33.63
37710;BME280;60223;34.854;-92.408;2023-04-01T00:57:24;99763.24;;;24.21;33.61
37710;BME280;60223;34.854;-92.408;2023-04-01T00:59:48;99770.25;;;24.05;33.75
37710;BME280;60223;34.854;-92.408;2023-04-01T01:02:15;99767.88;;;23.88;33.64
37710;BME280;60223;34.854;-92.408;2023-04-01T01:04:39;99778.89;;;24.11;33.70
37710;BME280;60223;34.854;-92.408;2023-04-01T01:07:12;99779.09;;;24.16;33.64
37710;BME280;60223;34.854;-92.408;2023-04-01T01:09:38;99783.65;;;24.17;33.59
37710;BME280;60223;34.854;-92.408;2023-04-01T01:11:58;99791.76;;;23.94;33.65
37710;BME280;60223;34.854;-92.408;2023-04-01T01:14:28;99800.13;;;24.10;33.67
37710;BME280;60223;34.854;-92.408;2023-04-01T01:16:48;99809.25;;;23.84;33.65
37710;BME280;60223;34.854;-92.408;2023-04-01T01:19:21;99813.51;;;23.66;33.63
37710;BME280;60223;34.854;-92.408;2023-04-01T01:21:47;99815.33;;;24.11;33.72
37710;BME280;60223;34.854;-92.408;2023-04-01T01:24:08;99821.28;;;24.41;33.43
37710;BME280;60223;34.854;-92.408;2023-04-01T01:26:45;99825.64;;;24.18;33.67
37710;BME280;60223;34.854;-92.408;2023-04-01T01:28:58;99826.16;;;23.94;33.70
37710;BME280;60223;34.854;-92.408;2023-04-01T01:31:21;99832.29;;;24.13;33.69
37710;BME280;60223;34.854;-92.408;2023-04-01T01:33:51;99834.32;;;24.06;33.72
37710;BME280;60223;34.854;-92.408;2023-04-01T01:36:07;99837.17;;;24.19;33.59
37710;BME280;60223;34.854;-92.408;2023-04-01T01:38:36;99843.99;;;24.21;33.62
37710;BME280;60223;34.854;-92.408;2023-04-01T01:40:59;99842.88;;;24.15;33.63
37710;BME280;60223;34.854;-92.408;2023-04-01T01:43:29;99843.45;;;23.84;33.69
37710;BME280;60223;34.854;-92.408;2023-04-01T01:45:52;99847.94;;;24.11;33.64
37710;BME280;60223;34.854;-92.408;2023-04-01T01:48:16;99854.04;;;23.87;33.68
37710;BME280;60223;34.854;-92.408;2023-04-01T01:50:41;99855.94;;;23.81;33.69
37710;BME280;60223;34.854;-92.408;2023-04-01T01:53:10;99858.56;;;24.09;33.65
37710;BME280;60223;34.854;-92.408;2023-04-01T01:55:35;99855.87;;;24.64;33.04
37710;BME280;60223;34.854;-92.408;2023-04-01T01:58:02;99867.00;;;24.22;33.51
37710;BME280;60223;34.854;-92.408;2023-04-01T02:00:25;99876.45;;;24.10;33.53
37710;BME280;60223;34.854;-92.408;2023-04-01T02:02:49;99887.79;;;24.14;33.53
37710;BME280;60223;34.854;-92.408;2023-04-01T02:05:20;99891.41;;;23.87;33.57
37710;BME280;60223;34.854;-92.408;2023-04-01T02:07:41;99894.89;;;23.90;33.56
37710;BME280;60223;34.854;-92.408;2023-04-01T02:10:07;99900.52;;;24.13;33.52
37710;BME280;60223;34.854;-92.408;2023-04-01T02:12:32;99911.57;;;24.07;33.32
37710;BME280;60223;34.854;-92.408;2023-04-01T02:15:00;99912.38;;;24.28;33.40
37710;BME280;60223;34.854;-92.408;2023-04-01T02:17:24;99919.86;;;24.18;33.22
37710;BME280;60223;34.854;-92.408;2023-04-01T02:19:51;99918.74;;;24.35;33.31
37710;BME280;60223;34.854;-92.408;2023-04-01T02:22:18;99932.11;;;24.33;33.33
37710;BME280;60223;34.854;-92.408;2023-04-01T02:24:40;99941.14;;;24.14;33.25
37710;BME280;60223;34.854;-92.408;2023-04-01T02:27:06;99946.95;;;24.21;33.17
37710;BME280;60223;34.854;-92.408;2023-04-01T02:29:31;99947.82;;;24.37;33.27
37710;BME280;60223;34.854;-92.408;2023-04-01T02:31:57;99952.95;;;24.68;32.90
37710;BME280;60223;34.854;-92.408;2023-04-01T02:34:22;99955.09;;;24.19;33.21
37710;BME280;60223;34.854;-92.408;2023-04-01T02:36:48;99962.39;;;24.52;33.08
37710;BME280;60223;34.854;-92.408;2023-04-01T02:39:12;99968.86;;;24.33;33.03
37710;BME280;60223;34.854;-92.408;2023-04-01T02:41:41;99974.34;;;24.27;33.05
37710;BME280;60223;34.854;-92.408;2023-04-01T02:44:04;99977.54;;;24.31;32.98
37710;BME280;60223;34.854;-92.408;2023-04-01T02:46:29;99986.05;;;24.62;32.91
37710;BME280;60223;34.854;-92.408;2023-04-01T02:48:53;99987.58;;;24.63;32.89
37710;BME280;60223;34.854;-92.408;2023-04-01T02:51:19;100000.40;;;24.45;32.87
37710;BME280;60223;34.854;-92.408;2023-04-01T02:53:45;100012.46;;;24.65;32.87
37710;BME280;60223;34.854;-92.408;2023-04-01T02:56:10;100019.84;;;24.52;32.71
37710;BME280;60223;34.854;-92.408;2023-04-01T02:58:36;100028.46;;;24.73;32.75
37710;BME280;60223;34.854;-92.408;2023-04-01T03:00:59;100032.54;;;24.77;32.67
37710;BME280;60223;34.854;-92.408;2023-04-01T03:03:26;100040.07;;;24.75;32.73
37710;BME280;60223;34.854;-92.408;2023-04-01T03:05:50;100044.22;;;24.72;32.74
37710;BME280;60223;34.854;-92.408;2023-04-01T03:08:18;100048.72;;;24.70;32.76
37710;BME280;60223;34.854;-92.408;2023-04-01T03:10:44;100053.63;;;24.72;32.75
37710;BME280;60223;34.854;-92.408;2023-04-01T03:13:09;100052.82;;;24.32;32.94
37710;BME280;60223;34.854;-92.408;2023-04-01T03:15:33;100060.39;;;24.44;32.73
37710;BME280;60223;34.854;-92.408;2023-04-01T03:18:01;100068.81;;;24.30;32.99
37710;BME280;60223;34.854;-92.408;2023-04-01T03:20:26;100067.73;;;24.47;32.98
37710;BME280;60223;34.854;-92.408;2023-04-01T03:22:51;100067.87;;;24.59;32.88
37710;BME280;60223;34.854;-92.408;2023-04-01T03:25:17;100073.19;;;24.48;32.68
37710;BME280;60223;34.854;-92.408;2023-04-01T03:27:43;100084.28;;;24.69;32.66
37710;BME280;60223;34.854;-92.408;2023-04-01T03:30:08;100086.62;;;24.44;32.62
37710;BME280;60223;34.854;-92.408;2023-04-01T03:32:34;100083.67;;;24.51;32.48
37710;BME280;60223;34.854;-92.408;2023-04-01T03:34:59;100084.11;;;24.50;32.53
37710;BME280;60223;34.854;-92.408;2023-04-01T03:37:25;100087.72;;;24.69;32.57
37710;BME280;60223;34.854;-92.408;2023-04-01T03:39:49;100078.97;;;24.30;32.76
37710;BME280;60223;34.854;-92.408;2023-04-01T03:42:16;100081.85;;;24.56;32.77
37710;BME280;60223;34.854;-92.408;2023-04-01T03:44:42;100085.54;;;24.13;32.92
37710;BME280;60223;34.854;-92.408;2023-04-01T03:47:08;100089.91;;;24.32;33.05
37710;BME280;60223;34.854;-92.408;2023-04-01T03:49:33;100091.27;;;24.28;32.78
37710;BME280;60223;34.854;-92.408;2023-04-01T03:51:59;100084.38;;;24.32;32.72
37710;BME280;60223;34.854;-92.408;2023-04-01T03:54:25;100081.48;;;24.27;32.98
37710;BME280;60223;34.854;-92.408;2023-04-01T03:56:50;100088.23;;;24.35;32.91
37710;BME280;60223;34.854;-92.408;2023-04-01T03:59:16;100085.97;;;24.20;33.04
37710;BME280;60223;34.854;-92.408;2023-04-01T04:01:41;100084.64;;;24.27;32.96
37710;BME280;60223;34.854;-92.408;2023-04-01T04:04:11;100088.59;;;23.88;33.11
37710;BME280;60223;34.854;-92.408;2023-04-01T04:06:32;100091.25;;;24.06;33.16
37710;BME280;60223;34.854;-92.408;2023-04-01T04:08:57;100095.70;;;23.72;33.22
37710;BME280;60223;34.854;-92.408;2023-04-01T04:11:24;100103.02;;;24.08;33.12
37710;BME280;60223;34.854;-92.408;2023-04-01T04:13:49;100101.04;;;24.10;33.10
37710;BME280;60223;34.854;-92.408;2023-04-01T04:16:15;100103.82;;;23.62;33.65
37710;BME280;60223;34.854;-92.408;2023-04-01T04:18:40;100104.72;;;23.67;33.55
37710;BME280;60223;34.854;-92.408;2023-04-01T04:21:02;100104.46;;;23.21;33.77
37710;BME280;60223;34.854;-92.408;2023-04-01T04:23:32;100110.47;;;23.54;33.68
37710;BME280;60223;34.854;-92.408;2023-04-01T04:25:59;100113.91;;;23.13;33.89
37710;BME280;60223;34.854;-92.408;2023-04-01T04:28:23;100117.41;;;23.63;33.53
37710;BME280;60223;34.854;-92.408;2023-04-01T04:30:49;100111.93;;;23.64;33.47
37710;BME280;60223;34.854;-92.408;2023-04-01T04:33:14;100114.07;;;23.83;33.24
37710;BME280;60223;34.854;-92.408;2023-04-01T04:35:38;100112.75;;;23.59;33.46
37710;BME280;60223;34.854;-92.408;2023-04-01T04:38:05;100112.98;;;23.41;33.65
37710;BME280;60223;34.854;-92.408;2023-04-01T04:40:31;100114.36;;;23.71;32.99
37710;BME280;60223;34.854;-92.408;2023-04-01T04:42:56;100112.37;;;23.91;33.08
37710;BME280;60223;34.854;-92.408;2023-04-01T04:45:20;100112.85;;;23.87;33.03
37710;BME280;60223;34.854;-92.408;2023-04-01T04:47:48;100116.56;;;23.92;32.96
37710;BME280;60223;34.854;-92.408;2023-04-01T04:50:14;100113.53;;;23.82;33.05
37710;BME280;60223;34.854;-92.408;2023-04-01T04:52:35;100115.90;;;23.87;33.30
37710;BME280;60223;34.854;-92.408;2023-04-01T04:55:03;100118.43;;;23.53;33.12
37710;BME280;60223;34.854;-92.408;2023-04-01T04:57:30;100114.07;;;23.75;33.08
37710;BME280;60223;34.854;-92.408;2023-04-01T04:59:56;100109.36;;;23.47;33.43
37710;BME280;60223;34.854;-92.408;2023-04-01T05:02:21;100105.77;;;23.76;33.05
37710;BME280;60223;34.854;-92.408;2023-04-01T05:04:46;100102.77;;;23.87;33.18
37710;BME280;60223;34.854;-92.408;2023-04-01T05:07:13;100104.86;;;23.55;33.33
37710;BME280;60223;34.854;-92.408;2023-04-01T05:09:37;100108.34;;;23.49;33.28
37710;BME280;60223;34.854;-92.408;2023-04-01T05:12:04;100106.17;;;23.63;33.14
37710;BME280;60223;34.854;-92.408;2023-04-01T05:14:29;100105.58;;;24.13;33.09
37710;BME280;60223;34.854;-92.408;2023-04-01T05:16:54;100105.14;;;23.53;33.17
37710;BME280;60223;34.854;-92.408;2023-04-01T05:19:21;100107.53;;;23.77;32.91
37710;BME280;60223;34.854;-92.408;2023-04-01T05:21:47;100106.42;;;23.70;32.97
37710;BME280;60223;34.854;-92.408;2023-04-01T05:24:12;100111.37;;;23.40;33.25
37710;BME280;60223;34.854;-92.408;2023-04-01T05:26:37;100110.72;;;23.46;33.15
37710;BME280;60223;34.854;-92.408;2023-04-01T05:29:02;100109.76;;;23.59;33.05
37710;BME280;60223;34.854;-92.408;2023-04-01T05:31:28;100111.42;;;23.64;32.96
37710;BME280;60223;34.854;-92.408;2023-04-01T05:33:54;100114.34;;;23.61;32.98
37710;BME280;60223;34.854;-92.408;2023-04-01T05:36:19;100113.21;;;24.02;32.98
37710;BME280;60223;34.854;-92.408;2023-04-01T05:38:45;100115.17;;;23.62;33.21
37710;BME280;60223;34.854;-92.408;2023-04-01T05:41:11;100112.96;;;23.78;33.01
37710;BME280;60223;34.854;-92.408;2023-04-01T05:43:35;100115.28;;;24.00;33.02
37710;BME280;60223;34.854;-92.408;2023-04-01T05:46:02;100116.06;;;23.64;32.85
37710;BME280;60223;34.854;-92.408;2023-04-01T05:48:28;100119.73;;;23.27;33.31
37710;BME280;60223;34.854;-92.408;2023-04-01T05:50:52;100128.83;;;23.60;32.90
37710;BME280;60223;34.854;-92.408;2023-04-01T05:53:19;100128.35;;;23.66;33.07
37710;BME280;60223;34.854;-92.408;2023-04-01T05:55:44;100127.37;;;23.62;32.82
37710;BME280;60223;34.854;-92.408;2023-04-01T05:58:10;100131.98;;;23.64;32.78
37710;BME280;60223;34.854;-92.408;2023-04-01T06:00:34;100124.25;;;23.42;33.00
37710;BME280;60223;34.854;-92.408;2023-04-01T06:03:02;100123.15;;;23.90;32.98
37710;BME280;60223;34.854;-92.408;2023-04-01T06:05:27;100118.24;;;23.77;32.89
37710;BME280;60223;34.854;-92.408;2023-04-01T06:07:54;100113.96;;;23.73;32.86
37710;BME280;60223;34.854;-92.408;2023-04-01T06:10:19;100112.53;;;23.60;32.72
37710;BME280;60223;34.854;-92.408;2023-04-01T06:12:51;100107.85;;;23.38;32.93
37710;BME280;60223;34.854;-92.408;2023-04-01T06:15:19;100108.75;;;23.39;32.95
37710;BME280;60223;34.854;-92.408;2023-04-01T06:17:43;100112.33;;;23.66;32.88
37710;BME280;60223;34.854;-92.408;2023-04-01T06:20:01;100111.03;;;23.66;32.88
37710;BME280;60223;34.854;-92.408;2023-04-01T06:22:34;100112.62;;;23.86;32.88
37710;BME280;60223;34.854;-92.408;2023-04-01T06:27:24;100107.30;;;23.09;33.30
37710;BME280;60223;34.854;-92.408;2023-04-01T06:29:53;100107.81;;;23.88;32.85
37710;BME280;60223;34.854;-92.408;2023-04-01T06:32:22;100106.30;;;23.98;32.74
37710;BME280;60223;34.854;-92.408;2023-04-01T06:37:07;100105.63;;;23.76;32.64
37710;BME280;60223;34.854;-92.408;2023-04-01T06:39:33;100105.55;;;23.77;32.90
37710;BME280;60223;34.854;-92.408;2023-04-01T06:42:03;100107.61;;;23.58;32.86
37710;BME280;60223;34.854;-92.408;2023-04-01T06:44:20;100109.97;;;23.53;32.86
37710;BME280;60223;34.854;-92.408;2023-04-01T06:46:47;100109.68;;;23.70;32.94
37710;BME280;60223;34.854;-92.408;2023-04-01T06:49:21;100110.15;;;23.59;32.77
37710;BME280;60223;34.854;-92.408;2023-04-01T06:51:40;100108.49;;;23.17;32.98
37710;BME280;60223;34.854;-92.408;2023-04-01T06:54:01;100103.89;;;23.25;32.82
37710;BME280;60223;34.854;-92.408;2023-04-01T06:56:24;100099.93;;;23.46;32.61
37710;BME280;60223;34.854;-92.408;2023-04-01T06:58:53;100100.11;;;23.41;32.91
37710;BME280;60223;34.854;-92.408;2023-04-01T07:01:16;100097.81;;;23.60;32.94
37710;BME280;60223;34.854;-92.408;2023-04-01T07:03:44;100088.68;;;23.29;32.97
37710;BME280;60223;34.854;-92.408;2023-04-01T07:06:09;100094.63;;;23.45;33.05
37710;BME280;60223;34.854;-92.408;2023-04-01T07:08:31;100095.78;;;23.64;32.48
37710;BME280;60223;34.854;-92.408;2023-04-01T07:11:00;100092.46;;;23.56;32.31
37710;BME280;60223;34.854;-92.408;2023-04-01T07:13:27;100092.96;;;24.39;31.81
37710;BME280;60223;34.854;-92.408;2023-04-01T07:15:49;100083.84;;;24.15;31.84
37710;BME280;60223;34.854;-92.408;2023-04-01T07:18:18;100085.18;;;24.27;31.61
37710;BME280;60223;34.854;-92.408;2023-04-01T07:20:40;100087.36;;;24.51;31.44
37710;BME280;60223;34.854;-92.408;2023-04-01T07:23:08;100085.19;;;24.32;31.68
37710;BME280;60223;34.854;-92.408;2023-04-01T07:25:33;100072.97;;;24.52;31.56
37710;BME280;60223;34.854;-92.408;2023-04-01T07:28:00;100066.43;;;24.16;31.37
37710;BME280;60223;34.854;-92.408;2023-04-01T07:30:19;100070.10;;;24.64;31.33
37710;BME280;60223;34.854;-92.408;2023-04-01T07:32:49;100068.09;;;24.28;31.48
37710;BME280;60223;34.854;-92.408;2023-04-01T07:35:21;100072.00;;;24.22;31.27
37710;BME280;60223;34.854;-92.408;2023-04-01T07:37:44;100067.48;;;24.45;31.50
37710;BME280;60223;34.854;-92.408;2023-04-01T07:40:14;100063.59;;;24.45;31.24
37710;BME280;60223;34.854;-92.408;2023-04-01T07:42:39;100060.23;;;24.46;31.46
37710;BME280;60223;34.854;-92.408;2023-04-01T07:45:04;100060.43;;;24.50;31.44
37710;BME280;60223;34.854;-92.408;2023-04-01T07:47:33;100056.69;;;24.30;31.41
37710;BME280;60223;34.854;-92.408;2023-04-01T07:49:55;100052.80;;;24.42;31.44
37710;BME280;60223;34.854;-92.408;2023-04-01T07:52:18;100054.10;;;24.16;31.51
37710;BME280;60223;34.854;-92.408;2023-04-01T07:54:42;100053.23;;;24.64;31.52
37710;BME280;60223;34.854;-92.408;2023-04-01T07:57:06;100052.86;;;24.41;31.31
37710;BME280;60223;34.854;-92.408;2023-04-01T07:59:37;100052.53;;;24.41;31.65
37710;BME280;60223;34.854;-92.408;2023-04-01T08:02:01;100057.06;;;23.97;31.90
37710;BME280;60223;34.854;-92.408;2023-04-01T08:04:27;100055.86;;;24.07;31.75
37710;BME280;60223;34.854;-92.408;2023-04-01T08:06:47;100059.05;;;24.43;31.28
37710;BME280;60223;34.854;-92.408;2023-04-01T08:09:19;100061.24;;;24.74;31.22
37710;BME280;60223;34.854;-92.408;2023-04-01T08:11:49;100056.44;;;24.25;31.50
37710;BME280;60223;34.854;-92.408;2023-04-01T08:14:09;100058.75;;;24.23;31.58
37710;BME280;60223;34.854;-92.408;2023-04-01T08:16:35;100059.65;;;24.45;31.25
37710;BME280;60223;34.854;-92.408;2023-04-01T08:19:01;100058.30;;;24.17;31.43
37710;BME280;60223;34.854;-92.408;2023-04-01T08:21:24;100060.01;;;24.42;31.49
37710;BME280;60223;34.854;-92.408;2023-04-01T08:23:48;100057.99;;;24.08;31.67
37710;BME280;60223;34.854;-92.408;2023-04-01T08:26:15;100053.71;;;24.10;31.65
37710;BME280;60223;34.854;-92.408;2023-04-01T08:28:41;100052.65;;;24.17;31.58
37710;BME280;60223;34.854;-92.408;2023-04-01T08:31:08;100049.15;;;24.28;31.39
37710;BME280;60223;34.854;-92.408;2023-04-01T08:33:27;100051.69;;;23.94;31.92
37710;BME280;60223;34.854;-92.408;2023-04-01T08:35:57;100047.79;;;23.69;32.05
37710;BME280;60223;34.854;-92.408;2023-04-01T08:38:23;100048.69;;;23.99;31.60
37710;BME280;60223;34.854;-92.408;2023-04-01T08:40:55;100049.07;;;24.21;31.71
37710;BME280;60223;34.854;-92.408;2023-04-01T08:43:16;100051.32;;;24.16;31.41
37710;BME280;60223;34.854;-92.408;2023-04-01T08:48:12;100054.32;;;24.14;32.14
37710;BME280;60223;34.854;-92.408;2023-04-01T08:50:47;100047.88;;;23.74;31.87
37710;BME280;60223;34.854;-92.408;2023-04-01T08:53:03;100047.50;;;23.45;32.16
37710;BME280;60223;34.854;-92.408;2023-04-01T08:55:31;100045.46;;;23.46;32.13
37710;BME280;60223;34.854;-92.408;2023-04-01T08:57:51;100045.20;;;23.67;32.17
37710;BME280;60223;34.854;-92.408;2023-04-01T09:00:15;100046.16;;;23.92;31.83
37710;BME280;60223;34.854;-92.408;2023-04-01T09:02:50;100042.61;;;23.21;32.92
37710;BME280;60223;34.854;-92.408;2023-04-01T09:07:39;100041.15;;;23.29;32.23
37710;BME280;60223;34.854;-92.408;2023-04-01T09:12:34;100041.32;;;23.53;31.78
37710;BME280;60223;34.854;-92.408;2023-04-01T09:14:53;100042.83;;;23.56;31.80
37710;BME280;60223;34.854;-92.408;2023-04-01T09:19:45;100041.36;;;23.22;32.18
37710;BME280;60223;34.854;-92.408;2023-04-01T09:22:10;100046.37;;;23.44;32.25
37710;BME280;60223;34.854;-92.408;2023-04-01T09:24:39;100047.05;;;23.66;32.25
37710;BME280;60223;34.854;-92.408;2023-04-01T09:27:03;100042.03;;;23.01;32.94
37710;BME280;60223;34.854;-92.408;2023-04-01T09:29:30;100047.20;;;23.21;32.17
37710;BME280;60223;34.854;-92.408;2023-04-01T09:32:00;100048.11;;;22.71;32.69
37710;BME280;60223;34.854;-92.408;2023-04-01T09:34:26;100053.84;;;23.21;32.04
37710;BME280;60223;34.854;-92.408;2023-04-01T09:36:44;100051.46;;;23.14;32.08
37710;BME280;60223;34.854;-92.408;2023-04-01T09:41:31;100118.95;;;23.48;31.95
37710;BME280;60223;34.854;-92.408;2023-04-01T09:44:00;100139.26;;;23.50;31.41
37710;BME280;60223;34.854;-92.408;2023-04-01T09:46:24;100158.67;;;23.81;31.20
37710;BME280;60223;34.854;-92.408;2023-04-01T09:48:54;100178.27;;;23.85;30.84
37710;BME280;60223;34.854;-92.408;2023-04-01T09:51:21;100178.12;;;24.18;30.82
37710;BME280;60223;34.854;-92.408;2023-04-01T09:53:48;100177.69;;;24.03;30.96
37710;BME280;60223;34.854;-92.408;2023-04-01T09:58:43;100170.45;;;23.94;31.15
37710;BME280;60223;34.854;-92.408;2023-04-01T10:08:25;100182.09;;;23.90;30.49
37710;BME280;60223;34.854;-92.408;2023-04-01T10:18:02;100187.14;;;24.13;30.49
37710;BME280;60223;34.854;-92.408;2023-04-01T10:27:48;100211.43;;;24.28;29.52
37710;BME280;60223;34.854;-92.408;2023-04-01T10:30:09;100205.29;;;24.27;30.08
37710;BME280;60223;34.854;-92.408;2023-04-01T10:35:01;100231.55;;;25.16;29.14
37710;BME280;60223;34.854;-92.408;2023-04-01T10:40:02;100241.30;;;24.64;29.02
37710;BME280;60223;34.854;-92.408;2023-04-01T10:47:18;100249.94;;;24.73;28.88
37710;BME280;60223;34.854;-92.408;2023-04-01T10:49:38;100251.84;;;24.69;29.33
37710;BME280;60223;34.854;-92.408;2023-04-01T10:56:48;100264.46;;;24.66;29.76
37710;BME280;60223;34.854;-92.408;2023-04-01T11:01:51;100269.23;;;24.40;29.75
37710;BME280;60223;34.854;-92.408;2023-04-01T11:09:05;100276.34;;;24.05;30.03
37710;BME280;60223;34.854;-92.408;2023-04-01T11:16:31;100303.99;;;24.23;29.77
37710;BME280;60223;34.854;-92.408;2023-04-01T11:23:42;100316.99;;;24.43;29.78
37710;BME280;60223;34.854;-92.408;2023-04-01T11:26:06;100318.78;;;24.15;29.93
37710;BME280;60223;34.854;-92.408;2023-04-01T11:28:28;100323.72;;;24.31;29.46
37710;BME280;60223;34.854;-92.408;2023-04-01T11:30:53;100318.82;;;24.59;29.09
37710;BME280;60223;34.854;-92.408;2023-04-01T11:33:09;100324.38;;;23.96;29.87
37710;BME280;60223;34.854;-92.408;2023-04-01T11:38:06;100328.58;;;24.99;28.77
37710;BME280;60223;34.854;-92.408;2023-04-01T11:40:29;100342.74;;;24.35;28.93
37710;BME280;60223;34.854;-92.408;2023-04-01T11:42:54;100353.17;;;24.56;28.67
37710;BME280;60223;34.854;-92.408;2023-04-01T11:45:25;100357.82;;;24.77;29.16
37710;BME280;60223;34.854;-92.408;2023-04-01T11:47:58;100366.28;;;24.55;29.47
37710;BME280;60223;34.854;-92.408;2023-04-01T11:50:14;100372.72;;;23.73;29.75
37710;BME280;60223;34.854;-92.408;2023-04-01T11:55:18;100385.94;;;24.67;29.30
37710;BME280;60223;34.854;-92.408;2023-04-01T11:57:38;100392.60;;;24.62;29.11
37710;BME280;60223;34.854;-92.408;2023-04-01T12:00:02;100401.18;;;24.39;29.41
37710;BME280;60223;34.854;-92.408;2023-04-01T12:02:22;100402.84;;;23.96;29.76
37710;BME280;60223;34.854;-92.408;2023-04-01T12:04:50;100407.26;;;24.47;29.02
37710;BME280;60223;34.854;-92.408;2023-04-01T12:07:17;100416.49;;;24.47;28.34
37710;BME280;60223;34.854;-92.408;2023-04-01T12:09:40;100418.26;;;24.24;28.93
37710;BME280;60223;34.854;-92.408;2023-04-01T12:12:10;100425.02;;;23.90;29.48
37710;BME280;60223;34.854;-92.408;2023-04-01T12:14:30;100424.49;;;22.56;30.96
37710;BME280;60223;34.854;-92.408;2023-04-01T12:17:00;100432.33;;;23.49;28.58
37710;BME280;60223;34.854;-92.408;2023-04-01T12:19:21;100432.00;;;22.93;29.02
37710;BME280;60223;34.854;-92.408;2023-04-01T12:21:49;100441.89;;;22.32;29.86
37710;BME280;60223;34.854;-92.408;2023-04-01T12:26:46;100458.67;;;22.95;29.73
37710;BME280;60223;34.854;-92.408;2023-04-01T12:29:11;100473.42;;;22.82;29.39
37710;BME280;60223;34.854;-92.408;2023-04-01T12:31:33;100483.09;;;23.30;28.88
37710;BME280;60223;34.854;-92.408;2023-04-01T12:34:00;100484.46;;;23.10;29.24
37710;BME280;60223;34.854;-92.408;2023-04-01T12:36:26;100484.98;;;23.04;31.18
37710;BME280;60223;34.854;-92.408;2023-04-01T12:38:50;100496.76;;;23.05;31.08
37710;BME280;60223;34.854;-92.408;2023-04-01T12:41:14;100507.91;;;23.85;30.52
37710;BME280;60223;34.854;-92.408;2023-04-01T12:46:06;100523.41;;;23.56;30.34
37710;BME280;60223;34.854;-92.408;2023-04-01T12:51:14;100532.96;;;23.62;30.06
37710;BME280;60223;34.854;-92.408;2023-04-01T12:53:27;100535.80;;;23.16;30.54
37710;BME280;60223;34.854;-92.408;2023-04-01T12:55:43;100552.56;;;24.08;29.80
37710;BME280;60223;34.854;-92.408;2023-04-01T12:58:22;100566.40;;;24.40;29.59
37710;BME280;60223;34.854;-92.408;2023-04-01T13:00:41;100568.82;;;24.53;29.62
37710;BME280;60223;34.854;-92.408;2023-04-01T13:03:11;100577.99;;;24.38;29.92
37710;BME280;60223;34.854;-92.408;2023-04-01T13:07:58;100581.99;;;24.36;29.94
37710;BME280;60223;34.854;-92.408;2023-04-01T13:10:27;100592.98;;;24.58;29.68
37710;BME280;60223;34.854;-92.408;2023-04-01T13:12:56;100591.67;;;24.17;30.21
37710;BME280;60223;34.854;-92.408;2023-04-01T13:15:20;100607.05;;;24.38;29.94
37710;BME280;60223;34.854;-92.408;2023-04-01T13:17:39;100611.94;;;24.46;29.83
37710;BME280;60223;34.854;-92.408;2023-04-01T13:20:02;100617.95;;;24.54;29.82
37710;BME280;60223;34.854;-92.408;2023-04-01T13:22:28;100626.75;;;24.68;29.87
37710;BME280;60223;34.854;-92.408;2023-04-01T13:24:54;100629.15;;;24.79;29.82
37710;BME280;60223;34.854;-92.408;2023-04-01T13:27:20;100631.61;;;24.45;29.96
37710;BME280;60223;34.854;-92.408;2023-04-01T13:29:43;100634.58;;;24.87;29.78
37710;BME280;60223;34.854;-92.408;2023-04-01T13:32:17;100634.36;;;24.60;30.12
37710;BME280;60223;34.854;-92.408;2023-04-01T13:34:39;100636.44;;;24.49;30.25
37710;BME280;60223;34.854;-92.408;2023-04-01T13:37:06;100638.22;;;24.51;30.00
37710;BME280;60223;34.854;-92.408;2023-04-01T13:39:36;100644.92;;;24.57;30.16
37710;BME280;60223;34.854;-92.408;2023-04-01T13:42:01;100652.12;;;24.75;29.90
37710;BME280;60223;34.854;-92.408;2023-04-01T13:44:17;100648.10;;;24.45;29.99
37710;BME280;60223;34.854;-92.408;2023-04-01T13:46:52;100660.83;;;24.52;30.16
37710;BME280;60223;34.854;-92.408;2023-04-01T13:49:21;100661.06;;;24.31;30.13
37710;BME280;60223;34.854;-92.408;2023-04-01T13:56:34;100679.47;;;24.25;29.92
37710;BME280;60223;34.854;-92.408;2023-04-01T13:59:04;100678.43;;;24.53;30.09
37710;BME280;60223;34.854;-92.408;2023-04-01T14:01:18;100674.33;;;24.39;29.98
37710;BME280;60223;34.854;-92.408;2023-04-01T14:06:19;100690.33;;;24.31;29.85
37710;BME280;60223;34.854;-92.408;2023-04-01T14:08:45;100693.67;;;23.98;30.15